sensor_id;sensor_type;location;lat;lon;timestamp;temperature;humidity
10384;DHT22;5238;43.508;4.980;2024-02-26T00:02:17;12.60;91.30
10384;DHT22;5238;43.508;4.980;2024-02-26T00:04:44;12.50;91.30
10384;DHT22;5238;43.508;4.980;2024-02-26T00:07:11;12.50;91.30
10384;DHT22;5238;43.508;4.980;2024-02-26T00:09:39;12.50;91.30
10384;DHT22;5238;43.508;4.980;2024-02-26T00:12:06;12.50;91.30
10384;DHT22;5238;43.508;4.980;2024-02-26T00:14:33;12.50;91.30
10384;DHT22;5238;43.508;4.980;2024-02-26T00:17:00;12.50;91.30
10384;DHT22;5238;43.508;4.980;2024-02-26T00:19:29;12.50;91.30
10384;DHT22;5238;43.508;4.980;2024-02-26T00:21:56;12.50;91.30
10384;DHT22;5238;43.508;4.980;2024-02-26T00:24:23;12.40;91.30
10384;DHT22;5238;43.508;4.980;2024-02-26T00:26:50;12.40;91.30
10384;DHT22;5238;43.508;4.980;2024-02-26T00:29:20;12.40;91.30
10384;DHT22;5238;43.508;4.980;2024-02-26T00:31:47;12.40;91.30
10384;DHT22;5238;43.508;4.980;2024-02-26T00:34:14;12.40;91.30
10384;DHT22;5238;43.508;4.980;2024-02-26T00:36:42;12.40;91.30
10384;DHT22;5238;43.508;4.980;2024-02-26T00:39:11;12.40;91.30
10384;DHT22;5238;43.508;4.980;2024-02-26T00:41:38;12.40;91.30
10384;DHT22;5238;43.508;4.980;2024-02-26T00:44:06;12.40;91.30
10384;DHT22;5238;43.508;4.980;2024-02-26T00:46:33;12.50;91.30
10384;DHT22;5238;43.508;4.980;2024-02-26T00:49:00;12.50;91.30
10384;DHT22;5238;43.508;4.980;2024-02-26T00:51:27;12.50;91.30
10384;DHT22;5238;43.508;4.980;2024-02-26T00:53:55;12.50;91.30
10384;DHT22;5238;43.508;4.980;2024-02-26T00:56:23;12.50;91.30
10384;DHT22;5238;43.508;4.980;2024-02-26T00:58:50;12.50;91.30
10384;DHT22;5238;43.508;4.980;2024-02-26T01:01:17;12.40;91.30
10384;DHT22;5238;43.508;4.980;2024-02-26T01:03:44;12.40;91.30
10384;DHT22;5238;43.508;4.980;2024-02-26T01:06:11;12.40;91.30
10384;DHT22;5238;43.508;4.980;2024-02-26T01:08:38;12.40;91.30
10384;DHT22;5238;43.508;4.980;2024-02-26T01:11:06;12.40;91.30
10384;DHT22;5238;43.508;4.980;2024-02-26T01:13:33;12.40;91.30
10384;DHT22;5238;43.508;4.980;2024-02-26T01:16:00;12.30;91.30
10384;DHT22;5238;43.508;4.980;2024-02-26T01:18:28;12.30;91.30
10384;DHT22;5238;43.508;4.980;2024-02-26T01:20:55;12.30;91.30
10384;DHT22;5238;43.508;4.980;2024-02-26T01:23:22;12.30;91.30
10384;DHT22;5238;43.508;4.980;2024-02-26T01:25:49;12.30;91.30
10384;DHT22;5238;43.508;4.980;2024-02-26T01:28:17;12.20;91.30
10384;DHT22;5238;43.508;4.980;2024-02-26T01:30:44;12.20;91.30
10384;DHT22;5238;43.508;4.980;2024-02-26T01:33:12;12.20;91.30
10384;DHT22;5238;43.508;4.980;2024-02-26T01:35:39;12.20;91.30
10384;DHT22;5238;43.508;4.980;2024-02-26T01:38:06;12.20;91.30
10384;DHT22;5238;43.508;4.980;2024-02-26T01:40:33;12.20;91.30
10384;DHT22;5238;43.508;4.980;2024-02-26T01:43:00;12.10;91.30
10384;DHT22;5238;43.508;4.980;2024-02-26T01:45:28;12.10;91.30
10384;DHT22;5238;43.508;4.980;2024-02-26T01:47:55;12.10;91.30
10384;DHT22;5238;43.508;4.980;2024-02-26T01:50:23;12.10;91.30
10384;DHT22;5238;43.508;4.980;2024-02-26T01:52:51;12.10;91.30
10384;DHT22;5238;43.508;4.980;2024-02-26T01:55:19;12.20;91.30
10384;DHT22;5238;43.508;4.980;2024-02-26T01:57:48;12.20;91.30
10384;DHT22;5238;43.508;4.980;2024-02-26T02:00:18;12.20;91.30
10384;DHT22;5238;43.508;4.980;2024-02-26T02:02:47;12.20;91.30
10384;DHT22;5238;43.508;4.980;2024-02-26T02:05:15;12.20;91.30
10384;DHT22;5238;43.508;4.980;2024-02-26T02:07:43;12.30;91.30
10384;DHT22;5238;43.508;4.980;2024-02-26T02:10:10;12.30;91.30
10384;DHT22;5238;43.508;4.980;2024-02-26T02:12:37;12.30;91.30
10384;DHT22;5238;43.508;4.980;2024-02-26T02:15:06;12.30;91.30
10384;DHT22;5238;43.508;4.980;2024-02-26T02:17:33;12.30;91.30
10384;DHT22;5238;43.508;4.980;2024-02-26T02:20:02;12.30;91.30
10384;DHT22;5238;43.508;4.980;2024-02-26T02:22:30;12.30;91.30
10384;DHT22;5238;43.508;4.980;2024-02-26T02:24:59;12.30;91.30
10384;DHT22;5238;43.508;4.980;2024-02-26T02:27:27;12.20;91.30
10384;DHT22;5238;43.508;4.980;2024-02-26T02:29:55;12.20;91.30
10384;DHT22;5238;43.508;4.980;2024-02-26T02:32:22;12.20;91.30
10384;DHT22;5238;43.508;4.980;2024-02-26T02:34:51;12.20;91.30
10384;DHT22;5238;43.508;4.980;2024-02-26T02:37:18;12.10;91.30
10384;DHT22;5238;43.508;4.980;2024-02-26T02:39:46;12.10;91.30
10384;DHT22;5238;43.508;4.980;2024-02-26T02:42:13;12.10;91.30
10384;DHT22;5238;43.508;4.980;2024-02-26T02:44:40;12.10;91.30
10384;DHT22;5238;43.508;4.980;2024-02-26T02:47:07;12.10;91.30
10384;DHT22;5238;43.508;4.980;2024-02-26T02:49:34;12.10;91.30
10384;DHT22;5238;43.508;4.980;2024-02-26T02:52:01;12.10;91.30
10384;DHT22;5238;43.508;4.980;2024-02-26T02:54:28;12.10;91.30
10384;DHT22;5238;43.508;4.980;2024-02-26T02:56:56;12.10;91.30
10384;DHT22;5238;43.508;4.980;2024-02-26T02:59:23;12.20;91.30
10384;DHT22;5238;43.508;4.980;2024-02-26T03:01:50;12.20;91.30
10384;DHT22;5238;43.508;4.980;2024-02-26T03:04:17;12.20;91.30
10384;DHT22;5238;43.508;4.980;2024-02-26T03:06:44;12.20;91.30
10384;DHT22;5238;43.508;4.980;2024-02-26T03:09:11;12.20;91.30
10384;DHT22;5238;43.508;4.980;2024-02-26T03:11:38;12.20;91.30
10384;DHT22;5238;43.508;4.980;2024-02-26T03:14:07;12.20;91.30
10384;DHT22;5238;43.508;4.980;2024-02-26T03:16:35;12.10;91.30
10384;DHT22;5238;43.508;4.980;2024-02-26T03:19:02;12.10;91.30
10384;DHT22;5238;43.508;4.980;2024-02-26T03:21:29;12.00;91.30
10384;DHT22;5238;43.508;4.980;2024-02-26T03:23:56;12.00;91.30
10384;DHT22;5238;43.508;4.980;2024-02-26T03:26:23;12.00;91.30
10384;DHT22;5238;43.508;4.980;2024-02-26T03:28:50;12.00;91.30
10384;DHT22;5238;43.508;4.980;2024-02-26T03:31:19;12.00;91.30
10384;DHT22;5238;43.508;4.980;2024-02-26T03:33:47;11.90;91.30
10384;DHT22;5238;43.508;4.980;2024-02-26T03:36:14;11.90;91.30
10384;DHT22;5238;43.508;4.980;2024-02-26T03:38:41;11.80;91.30
10384;DHT22;5238;43.508;4.980;2024-02-26T03:41:08;11.80;91.30
10384;DHT22;5238;43.508;4.980;2024-02-26T03:43:35;11.80;91.30
10384;DHT22;5238;43.508;4.980;2024-02-26T03:46:02;11.80;91.30
10384;DHT22;5238;43.508;4.980;2024-02-26T03:48:30;11.80;91.30
10384;DHT22;5238;43.508;4.980;2024-02-26T03:50:57;11.80;91.30
10384;DHT22;5238;43.508;4.980;2024-02-26T03:53:24;11.90;91.30
10384;DHT22;5238;43.508;4.980;2024-02-26T03:55:51;11.90;91.30
10384;DHT22;5238;43.508;4.980;2024-02-26T03:58:18;11.90;91.30
10384;DHT22;5238;43.508;4.980;2024-02-26T04:00:45;11.90;91.30
10384;DHT22;5238;43.508;4.980;2024-02-26T04:03:13;11.90;91.30
10384;DHT22;5238;43.508;4.980;2024-02-26T04:05:42;11.90;91.30
10384;DHT22;5238;43.508;4.980;2024-02-26T04:08:08;12.00;91.30
10384;DHT22;5238;43.508;4.980;2024-02-26T04:10:36;12.00;91.30
10384;DHT22;5238;43.508;4.980;2024-02-26T04:13:04;12.00;91.30
10384;DHT22;5238;43.508;4.980;2024-02-26T04:15:32;12.10;91.30
10384;DHT22;5238;43.508;4.980;2024-02-26T04:17:59;12.10;91.30
10384;DHT22;5238;43.508;4.980;2024-02-26T04:20:26;12.10;91.30
10384;DHT22;5238;43.508;4.980;2024-02-26T04:22:54;12.10;91.30
10384;DHT22;5238;43.508;4.980;2024-02-26T04:25:21;12.10;91.30
10384;DHT22;5238;43.508;4.980;2024-02-26T04:27:48;12.20;91.30
10384;DHT22;5238;43.508;4.980;2024-02-26T04:30:15;12.20;91.30
10384;DHT22;5238;43.508;4.980;2024-02-26T04:32:42;12.20;91.30
10384;DHT22;5238;43.508;4.980;2024-02-26T04:35:10;12.30;91.30
10384;DHT22;5238;43.508;4.980;2024-02-26T04:37:37;12.30;91.30
10384;DHT22;5238;43.508;4.980;2024-02-26T04:40:06;12.30;91.30
10384;DHT22;5238;43.508;4.980;2024-02-26T04:42:34;12.40;91.30
10384;DHT22;5238;43.508;4.980;2024-02-26T04:45:01;12.40;91.30
10384;DHT22;5238;43.508;4.980;2024-02-26T04:47:28;12.40;91.30
10384;DHT22;5238;43.508;4.980;2024-02-26T04:49:55;12.40;91.30
10384;DHT22;5238;43.508;4.980;2024-02-26T04:52:22;12.40;91.30
10384;DHT22;5238;43.508;4.980;2024-02-26T04:54:49;12.40;91.30
10384;DHT22;5238;43.508;4.980;2024-02-26T04:57:17;12.40;91.30
10384;DHT22;5238;43.508;4.980;2024-02-26T04:59:45;12.40;91.30
10384;DHT22;5238;43.508;4.980;2024-02-26T05:02:12;12.40;91.30
10384;DHT22;5238;43.508;4.980;2024-02-26T05:04:39;12.40;91.30
10384;DHT22;5238;43.508;4.980;2024-02-26T05:07:06;12.40;91.30
10384;DHT22;5238;43.508;4.980;2024-02-26T05:09:32;12.40;91.30
10384;DHT22;5238;43.508;4.980;2024-02-26T05:11:59;12.30;91.30
10384;DHT22;5238;43.508;4.980;2024-02-26T05:14:28;12.30;91.30
10384;DHT22;5238;43.508;4.980;2024-02-26T05:16:55;12.30;91.30
10384;DHT22;5238;43.508;4.980;2024-02-26T05:19:22;12.30;91.30
10384;DHT22;5238;43.508;4.980;2024-02-26T05:21:49;12.30;91.30
10384;DHT22;5238;43.508;4.980;2024-02-26T05:24:16;12.30;91.30
10384;DHT22;5238;43.508;4.980;2024-02-26T05:26:45;12.30;91.30
10384;DHT22;5238;43.508;4.980;2024-02-26T05:29:12;12.30;91.30
10384;DHT22;5238;43.508;4.980;2024-02-26T05:31:42;12.30;91.30
10384;DHT22;5238;43.508;4.980;2024-02-26T05:34:09;12.30;91.30
10384;DHT22;5238;43.508;4.980;2024-02-26T05:36:36;12.30;91.30
10384;DHT22;5238;43.508;4.980;2024-02-26T05:39:04;12.30;91.30
10384;DHT22;5238;43.508;4.980;2024-02-26T05:41:31;12.30;91.30
10384;DHT22;5238;43.508;4.980;2024-02-26T05:43:58;12.20;91.30
10384;DHT22;5238;43.508;4.980;2024-02-26T05:46:25;12.30;91.30
10384;DHT22;5238;43.508;4.980;2024-02-26T05:48:54;12.20;91.30
10384;DHT22;5238;43.508;4.980;2024-02-26T05:51:21;12.20;91.30
10384;DHT22;5238;43.508;4.980;2024-02-26T05:53:48;12.20;91.30
10384;DHT22;5238;43.508;4.980;2024-02-26T05:56:20;12.20;91.30
10384;DHT22;5238;43.508;4.980;2024-02-26T05:58:47;12.20;91.30
10384;DHT22;5238;43.508;4.980;2024-02-26T06:01:15;12.20;91.30
10384;DHT22;5238;43.508;4.980;2024-02-26T06:03:42;12.20;91.30
10384;DHT22;5238;43.508;4.980;2024-02-26T06:06:11;12.20;91.30
10384;DHT22;5238;43.508;4.980;2024-02-26T06:08:38;12.20;91.30
10384;DHT22;5238;43.508;4.980;2024-02-26T06:11:06;12.20;91.30
10384;DHT22;5238;43.508;4.980;2024-02-26T06:13:33;12.20;91.30
10384;DHT22;5238;43.508;4.980;2024-02-26T06:16:00;12.10;91.30
10384;DHT22;5238;43.508;4.980;2024-02-26T06:18:28;12.10;91.30
10384;DHT22;5238;43.508;4.980;2024-02-26T06:20:55;12.10;91.30
10384;DHT22;5238;43.508;4.980;2024-02-26T06:23:23;12.10;91.30
10384;DHT22;5238;43.508;4.980;2024-02-26T06:25:51;12.10;91.30
10384;DHT22;5238;43.508;4.980;2024-02-26T06:28:18;12.10;91.30
10384;DHT22;5238;43.508;4.980;2024-02-26T06:30:45;12.10;91.30
10384;DHT22;5238;43.508;4.980;2024-02-26T06:33:12;12.10;91.30
10384;DHT22;5238;43.508;4.980;2024-02-26T06:35:39;12.10;91.30
10384;DHT22;5238;43.508;4.980;2024-02-26T06:38:07;12.10;91.30
10384;DHT22;5238;43.508;4.980;2024-02-26T06:40:36;12.10;91.30
10384;DHT22;5238;43.508;4.980;2024-02-26T06:43:04;12.10;91.30
10384;DHT22;5238;43.508;4.980;2024-02-26T06:45:31;12.10;91.30
10384;DHT22;5238;43.508;4.980;2024-02-26T06:47:58;12.10;91.30
10384;DHT22;5238;43.508;4.980;2024-02-26T06:50:25;12.10;91.30
10384;DHT22;5238;43.508;4.980;2024-02-26T06:52:52;12.10;91.30
10384;DHT22;5238;43.508;4.980;2024-02-26T06:55:19;12.10;91.30
10384;DHT22;5238;43.508;4.980;2024-02-26T06:57:47;12.10;91.30
10384;DHT22;5238;43.508;4.980;2024-02-26T07:00:15;12.10;91.30
10384;DHT22;5238;43.508;4.980;2024-02-26T07:02:43;12.10;91.30
10384;DHT22;5238;43.508;4.980;2024-02-26T07:05:10;12.10;91.30
10384;DHT22;5238;43.508;4.980;2024-02-26T07:07:37;12.10;91.30
10384;DHT22;5238;43.508;4.980;2024-02-26T07:10:04;12.10;91.30
10384;DHT22;5238;43.508;4.980;2024-02-26T07:12:32;12.10;91.30
10384;DHT22;5238;43.508;4.980;2024-02-26T07:15:00;12.10;91.30
10384;DHT22;5238;43.508;4.980;2024-02-26T07:17:28;12.10;91.30
10384;DHT22;5238;43.508;4.980;2024-02-26T07:19:55;12.10;91.30
10384;DHT22;5238;43.508;4.980;2024-02-26T07:22:22;12.30;91.30
10384;DHT22;5238;43.508;4.980;2024-02-26T07:24:50;12.60;91.30
10384;DHT22;5238;43.508;4.980;2024-02-26T07:27:18;12.80;91.30
10384;DHT22;5238;43.508;4.980;2024-02-26T07:29:46;12.80;91.30
10384;DHT22;5238;43.508;4.980;2024-02-26T07:32:15;12.80;91.30
10384;DHT22;5238;43.508;4.980;2024-02-26T07:34:42;12.90;91.30
10384;DHT22;5238;43.508;4.980;2024-02-26T07:37:10;12.90;91.30
10384;DHT22;5238;43.508;4.980;2024-02-26T07:39:37;12.80;91.30
10384;DHT22;5238;43.508;4.980;2024-02-26T07:42:04;12.80;91.30
10384;DHT22;5238;43.508;4.980;2024-02-26T07:44:32;12.80;91.30
10384;DHT22;5238;43.508;4.980;2024-02-26T07:46:59;12.80;91.30
10384;DHT22;5238;43.508;4.980;2024-02-26T07:49:28;12.80;91.30
10384;DHT22;5238;43.508;4.980;2024-02-26T07:51:55;12.80;91.30
10384;DHT22;5238;43.508;4.980;2024-02-26T07:54:24;12.80;91.30
10384;DHT22;5238;43.508;4.980;2024-02-26T07:56:51;12.80;91.30
10384;DHT22;5238;43.508;4.980;2024-02-26T07:59:18;12.80;91.30
10384;DHT22;5238;43.508;4.980;2024-02-26T08:01:49;12.80;91.30
10384;DHT22;5238;43.508;4.980;2024-02-26T08:04:16;12.80;91.30
10384;DHT22;5238;43.508;4.980;2024-02-26T08:06:44;12.80;91.30
10384;DHT22;5238;43.508;4.980;2024-02-26T08:09:11;12.90;91.30
10384;DHT22;5238;43.508;4.980;2024-02-26T08:11:39;12.90;91.30
10384;DHT22;5238;43.508;4.980;2024-02-26T08:14:06;12.90;91.30
10384;DHT22;5238;43.508;4.980;2024-02-26T08:16:33;12.90;91.30
10384;DHT22;5238;43.508;4.980;2024-02-26T08:19:00;12.90;91.30
10384;DHT22;5238;43.508;4.980;2024-02-26T08:21:26;12.90;91.30
10384;DHT22;5238;43.508;4.980;2024-02-26T08:23:55;12.90;91.30
10384;DHT22;5238;43.508;4.980;2024-02-26T08:26:22;12.90;91.30
10384;DHT22;5238;43.508;4.980;2024-02-26T08:28:50;13.00;91.30
10384;DHT22;5238;43.508;4.980;2024-02-26T08:31:17;13.10;91.30
10384;DHT22;5238;43.508;4.980;2024-02-26T08:33:44;13.10;91.30
10384;DHT22;5238;43.508;4.980;2024-02-26T08:36:11;13.20;91.30
10384;DHT22;5238;43.508;4.980;2024-02-26T08:38:38;13.20;91.30
10384;DHT22;5238;43.508;4.980;2024-02-26T08:41:07;13.30;91.30
10384;DHT22;5238;43.508;4.980;2024-02-26T08:43:33;13.40;91.30
10384;DHT22;5238;43.508;4.980;2024-02-26T08:46:00;13.60;91.30
10384;DHT22;5238;43.508;4.980;2024-02-26T08:48:28;13.90;91.30
10384;DHT22;5238;43.508;4.980;2024-02-26T08:50:55;14.30;91.30
10384;DHT22;5238;43.508;4.980;2024-02-26T08:53:22;14.50;91.30
10384;DHT22;5238;43.508;4.980;2024-02-26T08:55:49;14.70;91.30
10384;DHT22;5238;43.508;4.980;2024-02-26T08:58:18;14.90;91.30
10384;DHT22;5238;43.508;4.980;2024-02-26T09:00:46;15.30;91.30
10384;DHT22;5238;43.508;4.980;2024-02-26T09:03:13;15.60;91.30
10384;DHT22;5238;43.508;4.980;2024-02-26T09:05:40;15.80;91.30
10384;DHT22;5238;43.508;4.980;2024-02-26T09:08:07;15.90;91.30
10384;DHT22;5238;43.508;4.980;2024-02-26T09:10:34;16.10;91.30
10384;DHT22;5238;43.508;4.980;2024-02-26T09:13:01;16.10;91.30
10384;DHT22;5238;43.508;4.980;2024-02-26T09:15:29;16.20;91.30
10384;DHT22;5238;43.508;4.980;2024-02-26T09:17:56;16.20;91.30
10384;DHT22;5238;43.508;4.980;2024-02-26T09:20:23;16.20;91.30
10384;DHT22;5238;43.508;4.980;2024-02-26T09:22:50;16.10;91.30
10384;DHT22;5238;43.508;4.980;2024-02-26T09:25:18;16.20;91.30
10384;DHT22;5238;43.508;4.980;2024-02-26T09:27:45;16.20;91.30
10384;DHT22;5238;43.508;4.980;2024-02-26T09:30:13;16.40;91.30
10384;DHT22;5238;43.508;4.980;2024-02-26T09:32:46;16.40;91.30
10384;DHT22;5238;43.508;4.980;2024-02-26T09:35:13;16.50;91.30
10384;DHT22;5238;43.508;4.980;2024-02-26T09:37:40;16.60;91.30
10384;DHT22;5238;43.508;4.980;2024-02-26T09:40:10;16.70;91.30
10384;DHT22;5238;43.508;4.980;2024-02-26T09:42:42;16.80;91.30
10384;DHT22;5238;43.508;4.980;2024-02-26T09:45:14;16.90;91.30
10384;DHT22;5238;43.508;4.980;2024-02-26T09:47:43;17.00;91.30
10384;DHT22;5238;43.508;4.980;2024-02-26T09:50:11;17.10;91.30
10384;DHT22;5238;43.508;4.980;2024-02-26T09:52:41;17.40;91.30
10384;DHT22;5238;43.508;4.980;2024-02-26T09:55:08;17.50;91.30
10384;DHT22;5238;43.508;4.980;2024-02-26T09:57:36;17.60;91.30
10384;DHT22;5238;43.508;4.980;2024-02-26T10:00:06;17.70;91.30
10384;DHT22;5238;43.508;4.980;2024-02-26T10:02:36;17.90;91.30
10384;DHT22;5238;43.508;4.980;2024-02-26T10:05:07;18.00;91.30
10384;DHT22;5238;43.508;4.980;2024-02-26T10:07:37;18.20;91.30
10384;DHT22;5238;43.508;4.980;2024-02-26T10:10:05;18.20;91.30
10384;DHT22;5238;43.508;4.980;2024-02-26T10:12:32;18.20;91.30
10384;DHT22;5238;43.508;4.980;2024-02-26T10:14:59;18.30;91.30
10384;DHT22;5238;43.508;4.980;2024-02-26T10:17:26;18.30;91.30
10384;DHT22;5238;43.508;4.980;2024-02-26T10:19:54;18.40;91.30
10384;DHT22;5238;43.508;4.980;2024-02-26T10:22:38;18.50;91.30
10384;DHT22;5238;43.508;4.980;2024-02-26T10:25:05;18.40;91.30
10384;DHT22;5238;43.508;4.980;2024-02-26T10:27:33;18.40;91.30
10384;DHT22;5238;43.508;4.980;2024-02-26T10:30:03;18.30;91.30
10384;DHT22;5238;43.508;4.980;2024-02-26T10:32:30;18.30;91.30
10384;DHT22;5238;43.508;4.980;2024-02-26T10:34:58;18.30;91.30
10384;DHT22;5238;43.508;4.980;2024-02-26T10:37:25;18.30;91.30
10384;DHT22;5238;43.508;4.980;2024-02-26T10:39:53;18.30;91.30
10384;DHT22;5238;43.508;4.980;2024-02-26T10:42:20;18.20;91.30
10384;DHT22;5238;43.508;4.980;2024-02-26T10:44:47;18.30;91.30
10384;DHT22;5238;43.508;4.980;2024-02-26T10:47:15;18.20;91.30
10384;DHT22;5238;43.508;4.980;2024-02-26T10:49:46;18.20;91.30
10384;DHT22;5238;43.508;4.980;2024-02-26T10:52:14;18.30;91.30
10384;DHT22;5238;43.508;4.980;2024-02-26T10:54:42;18.40;91.30
10384;DHT22;5238;43.508;4.980;2024-02-26T10:57:14;18.40;91.30
10384;DHT22;5238;43.508;4.980;2024-02-26T10:59:42;18.60;91.30
10384;DHT22;5238;43.508;4.980;2024-02-26T11:02:10;18.60;91.30
10384;DHT22;5238;43.508;4.980;2024-02-26T11:04:39;18.60;91.30
10384;DHT22;5238;43.508;4.980;2024-02-26T11:07:09;18.60;91.30
10384;DHT22;5238;43.508;4.980;2024-02-26T11:09:36;18.60;91.30
10384;DHT22;5238;43.508;4.980;2024-02-26T11:12:08;18.50;91.30
10384;DHT22;5238;43.508;4.980;2024-02-26T11:14:40;18.50;91.30
10384;DHT22;5238;43.508;4.980;2024-02-26T11:17:09;18.60;91.30
10384;DHT22;5238;43.508;4.980;2024-02-26T11:19:38;18.60;91.30
10384;DHT22;5238;43.508;4.980;2024-02-26T11:22:06;18.80;91.30
10384;DHT22;5238;43.508;4.980;2024-02-26T11:24:33;18.90;91.30
10384;DHT22;5238;43.508;4.980;2024-02-26T11:27:06;19.00;91.30
10384;DHT22;5238;43.508;4.980;2024-02-26T11:29:37;19.00;91.30
10384;DHT22;5238;43.508;4.980;2024-02-26T11:32:06;19.00;91.30
10384;DHT22;5238;43.508;4.980;2024-02-26T11:34:34;18.90;91.30
10384;DHT22;5238;43.508;4.980;2024-02-26T11:37:10;18.80;91.30
10384;DHT22;5238;43.508;4.980;2024-02-26T11:39:37;18.60;91.30
10384;DHT22;5238;43.508;4.980;2024-02-26T11:42:07;18.60;91.30
10384;DHT22;5238;43.508;4.980;2024-02-26T11:44:35;18.70;91.30
10384;DHT22;5238;43.508;4.980;2024-02-26T11:47:11;18.70;91.30
10384;DHT22;5238;43.508;4.980;2024-02-26T11:49:39;18.70;91.30
10384;DHT22;5238;43.508;4.980;2024-02-26T11:52:08;18.60;91.30
10384;DHT22;5238;43.508;4.980;2024-02-26T11:54:45;18.70;91.30
10384;DHT22;5238;43.508;4.980;2024-02-26T11:57:26;18.70;91.30
10384;DHT22;5238;43.508;4.980;2024-02-26T11:59:54;18.60;91.30
10384;DHT22;5238;43.508;4.980;2024-02-26T12:02:40;18.60;91.30
10384;DHT22;5238;43.508;4.980;2024-02-26T12:05:07;18.50;91.30
10384;DHT22;5238;43.508;4.980;2024-02-26T12:07:36;18.50;91.30
10384;DHT22;5238;43.508;4.980;2024-02-26T12:10:20;18.50;91.30
10384;DHT22;5238;43.508;4.980;2024-02-26T12:12:53;18.60;91.30
10384;DHT22;5238;43.508;4.980;2024-02-26T12:15:22;18.60;91.30
10384;DHT22;5238;43.508;4.980;2024-02-26T12:17:51;18.60;91.30
10384;DHT22;5238;43.508;4.980;2024-02-26T12:20:19;18.60;91.30
10384;DHT22;5238;43.508;4.980;2024-02-26T12:22:46;18.60;91.30
10384;DHT22;5238;43.508;4.980;2024-02-26T12:25:14;18.60;91.30
10384;DHT22;5238;43.508;4.980;2024-02-26T12:27:41;18.60;91.30
10384;DHT22;5238;43.508;4.980;2024-02-26T12:30:09;18.50;91.30
10384;DHT22;5238;43.508;4.980;2024-02-26T12:32:36;18.40;91.30
10384;DHT22;5238;43.508;4.980;2024-02-26T12:35:06;18.40;91.30
10384;DHT22;5238;43.508;4.980;2024-02-26T12:37:34;18.40;91.30
10384;DHT22;5238;43.508;4.980;2024-02-26T12:40:04;18.30;91.30
10384;DHT22;5238;43.508;4.980;2024-02-26T12:42:32;18.30;91.30
10384;DHT22;5238;43.508;4.980;2024-02-26T12:45:05;18.30;91.30
10384;DHT22;5238;43.508;4.980;2024-02-26T12:47:36;18.30;91.30
10384;DHT22;5238;43.508;4.980;2024-02-26T12:50:05;18.30;91.30
10384;DHT22;5238;43.508;4.980;2024-02-26T12:52:32;18.30;91.30
10384;DHT22;5238;43.508;4.980;2024-02-26T12:55:01;18.30;91.30
10384;DHT22;5238;43.508;4.980;2024-02-26T12:57:28;18.30;91.30
10384;DHT22;5238;43.508;4.980;2024-02-26T12:59:56;18.30;91.30
10384;DHT22;5238;43.508;4.980;2024-02-26T13:02:23;18.30;91.30
10384;DHT22;5238;43.508;4.980;2024-02-26T13:04:50;18.40;91.30
10384;DHT22;5238;43.508;4.980;2024-02-26T13:07:20;18.40;91.30
10384;DHT22;5238;43.508;4.980;2024-02-26T13:09:47;18.30;91.30
10384;DHT22;5238;43.508;4.980;2024-02-26T13:12:14;18.40;91.30
10384;DHT22;5238;43.508;4.980;2024-02-26T13:14:41;18.40;91.30
10384;DHT22;5238;43.508;4.980;2024-02-26T13:17:08;18.40;91.30
10384;DHT22;5238;43.508;4.980;2024-02-26T13:19:35;18.30;91.30
10384;DHT22;5238;43.508;4.980;2024-02-26T13:22:06;18.30;91.30
10384;DHT22;5238;43.508;4.980;2024-02-26T13:24:35;18.20;91.30
10384;DHT22;5238;43.508;4.980;2024-02-26T13:27:02;18.00;91.30
10384;DHT22;5238;43.508;4.980;2024-02-26T13:29:31;17.90;91.30
10384;DHT22;5238;43.508;4.980;2024-02-26T13:31:59;17.90;91.30
10384;DHT22;5238;43.508;4.980;2024-02-26T13:34:25;17.80;91.30
10384;DHT22;5238;43.508;4.980;2024-02-26T13:36:52;17.70;91.30
10384;DHT22;5238;43.508;4.980;2024-02-26T13:39:23;17.70;91.30
10384;DHT22;5238;43.508;4.980;2024-02-26T13:41:51;17.60;91.30
10384;DHT22;5238;43.508;4.980;2024-02-26T13:44:19;17.50;91.30
10384;DHT22;5238;43.508;4.980;2024-02-26T13:46:46;17.50;91.30
10384;DHT22;5238;43.508;4.980;2024-02-26T13:49:15;17.50;91.30
10384;DHT22;5238;43.508;4.980;2024-02-26T13:51:42;17.40;91.30
10384;DHT22;5238;43.508;4.980;2024-02-26T13:54:09;17.30;91.30
10384;DHT22;5238;43.508;4.980;2024-02-26T13:56:36;17.20;91.30
10384;DHT22;5238;43.508;4.980;2024-02-26T13:59:05;17.20;91.30
10384;DHT22;5238;43.508;4.980;2024-02-26T14:01:32;17.10;91.30
10384;DHT22;5238;43.508;4.980;2024-02-26T14:03:59;17.10;91.30
10384;DHT22;5238;43.508;4.980;2024-02-26T14:06:28;17.10;91.30
10384;DHT22;5238;43.508;4.980;2024-02-26T14:08:56;17.00;91.30
10384;DHT22;5238;43.508;4.980;2024-02-26T14:11:23;17.00;91.30
10384;DHT22;5238;43.508;4.980;2024-02-26T14:13:51;16.90;91.30
10384;DHT22;5238;43.508;4.980;2024-02-26T14:16:19;16.90;91.30
10384;DHT22;5238;43.508;4.980;2024-02-26T14:18:47;16.90;91.30
10384;DHT22;5238;43.508;4.980;2024-02-26T14:21:13;16.80;91.30
10384;DHT22;5238;43.508;4.980;2024-02-26T14:23:41;16.80;91.30
10384;DHT22;5238;43.508;4.980;2024-02-26T14:26:10;16.80;91.30
10384;DHT22;5238;43.508;4.980;2024-02-26T14:28:37;16.80;91.30
10384;DHT22;5238;43.508;4.980;2024-02-26T14:31:05;16.80;91.30
10384;DHT22;5238;43.508;4.980;2024-02-26T14:33:34;16.80;91.30
10384;DHT22;5238;43.508;4.980;2024-02-26T14:36:04;16.90;91.30
10384;DHT22;5238;43.508;4.980;2024-02-26T14:38:31;16.90;91.30
10384;DHT22;5238;43.508;4.980;2024-02-26T14:40:58;16.90;91.30
10384;DHT22;5238;43.508;4.980;2024-02-26T14:43:25;16.90;91.30
10384;DHT22;5238;43.508;4.980;2024-02-26T14:45:52;16.90;91.30
10384;DHT22;5238;43.508;4.980;2024-02-26T14:48:19;17.00;91.30
10384;DHT22;5238;43.508;4.980;2024-02-26T14:50:47;17.00;91.30
10384;DHT22;5238;43.508;4.980;2024-02-26T14:53:14;17.00;91.30
10384;DHT22;5238;43.508;4.980;2024-02-26T14:55:41;17.00;91.30
10384;DHT22;5238;43.508;4.980;2024-02-26T14:58:08;17.00;91.30
10384;DHT22;5238;43.508;4.980;2024-02-26T15:00:36;17.00;91.30
10384;DHT22;5238;43.508;4.980;2024-02-26T15:03:03;17.00;91.30
10384;DHT22;5238;43.508;4.980;2024-02-26T15:05:31;16.90;91.30
10384;DHT22;5238;43.508;4.980;2024-02-26T15:07:59;16.90;91.30
10384;DHT22;5238;43.508;4.980;2024-02-26T15:10:27;16.90;91.30
10384;DHT22;5238;43.508;4.980;2024-02-26T15:12:55;16.90;91.30
10384;DHT22;5238;43.508;4.980;2024-02-26T15:15:22;16.90;91.30
10384;DHT22;5238;43.508;4.980;2024-02-26T15:17:49;17.00;91.30
10384;DHT22;5238;43.508;4.980;2024-02-26T15:20:17;17.00;91.30
10384;DHT22;5238;43.508;4.980;2024-02-26T15:22:44;17.00;91.30
10384;DHT22;5238;43.508;4.980;2024-02-26T15:25:13;17.00;91.30
10384;DHT22;5238;43.508;4.980;2024-02-26T15:27:40;17.00;91.30
10384;DHT22;5238;43.508;4.980;2024-02-26T15:30:08;17.00;91.30
10384;DHT22;5238;43.508;4.980;2024-02-26T15:32:35;17.00;91.30
10384;DHT22;5238;43.508;4.980;2024-02-26T15:35:02;17.00;91.30
10384;DHT22;5238;43.508;4.980;2024-02-26T15:37:29;16.90;91.30
10384;DHT22;5238;43.508;4.980;2024-02-26T15:39:56;16.90;91.30
10384;DHT22;5238;43.508;4.980;2024-02-26T15:42:25;16.90;91.30
10384;DHT22;5238;43.508;4.980;2024-02-26T15:44:51;16.90;91.30
10384;DHT22;5238;43.508;4.980;2024-02-26T15:47:18;16.90;91.30
10384;DHT22;5238;43.508;4.980;2024-02-26T15:49:45;16.90;91.30